createdAt,value
2019-03-18T00:00:35.135Z,10.80
2019-03-18T00:03:04.119Z,13.28
2019-03-18T00:05:33.010Z,12.67
2019-03-18T00:08:02.220Z,10.23
2019-03-18T00:10:31.114Z,16.37
2019-03-18T00:13:00.109Z,13.27
2019-03-18T00:15:28.771Z,17.07
2019-03-18T00:17:58.092Z,13.08
2019-03-18T00:20:26.863Z,16.90
2019-03-18T00:22:56.050Z,10.45
2019-03-18T00:25:24.740Z,17.37
2019-03-18T00:27:53.622Z,19.50
2019-03-18T00:30:22.206Z,16.70
2019-03-18T00:32:50.989Z,18.97
2019-03-18T00:35:20.198Z,25.25
2019-03-18T00:37:48.775Z,19.25
2019-03-18T00:40:19.605Z,21.93
2019-03-18T00:42:49.340Z,28.40
2019-03-18T00:45:19.866Z,18.70
2019-03-18T00:47:49.755Z,17.07
2019-03-18T00:50:20.078Z,20.77
2019-03-18T00:52:48.966Z,16.70
2019-03-18T00:55:20.626Z,19.12
2019-03-18T00:57:55.559Z,29.82
2019-03-18T01:00:29.989Z,28.97
2019-03-18T01:03:00.861Z,19.60
2019-03-18T01:05:29.511Z,23.30
2019-03-18T01:07:58.378Z,29.92
2019-03-18T01:10:27.070Z,29.87
2019-03-18T01:12:56.154Z,26.52
2019-03-18T01:15:28.311Z,27.98
2019-03-18T01:17:55.266Z,22.95
2019-03-18T01:20:24.056Z,20.73
2019-03-18T01:22:52.951Z,23.60
2019-03-18T01:25:21.942Z,29.20
2019-03-18T01:27:58.100Z,31.10
2019-03-18T01:30:34.360Z,25.90
2019-03-18T01:33:04.481Z,24.10
2019-03-18T01:35:34.599Z,27.30
2019-03-18T01:38:03.375Z,23.10
2019-03-18T01:40:32.142Z,24.47
2019-03-18T01:43:01.284Z,31.43
2019-03-18T01:45:40.102Z,19.63
2019-03-18T01:48:00.394Z,16.10
2019-03-18T01:50:29.266Z,31.77
2019-03-18T01:52:59.179Z,24.00
2019-03-18T01:55:28.063Z,22.80
2019-03-18T01:58:03.199Z,24.83
2019-03-18T02:00:32.803Z,21.07
2019-03-18T02:03:01.688Z,24.55
2019-03-18T02:05:30.891Z,25.82
2019-03-18T02:07:59.601Z,21.82
2019-03-18T02:10:28.155Z,26.33
2019-03-18T02:12:57.355Z,33.45
2019-03-18T02:15:26.055Z,34.08
2019-03-18T02:17:54.622Z,24.70
2019-03-18T02:20:23.203Z,29.20
2019-03-18T02:22:52.400Z,27.23
2019-03-18T02:25:20.983Z,33.20
2019-03-18T02:27:49.879Z,28.30
2019-03-18T02:30:20.401Z,27.90
2019-03-18T02:32:49.195Z,20.17
2019-03-18T02:35:18.403Z,19.37
2019-03-18T02:37:47.469Z,24.35
2019-03-18T02:40:16.151Z,22.00
2019-03-18T02:42:54.267Z,29.17
2019-03-18T02:45:24.830Z,29.80
2019-03-18T02:47:54.132Z,24.47
2019-03-18T02:50:22.975Z,27.98
2019-03-18T02:52:54.731Z,40.25
2019-03-18T02:55:24.749Z,27.27
2019-03-18T02:57:53.948Z,27.30
2019-03-18T03:00:36.285Z,33.67
2019-03-18T03:03:06.573Z,25.87
2019-03-18T03:05:35.175Z,34.08
2019-03-18T03:08:03.935Z,28.77
2019-03-18T03:10:32.953Z,32.20
2019-03-18T03:13:01.817Z,35.63
2019-03-18T03:15:30.731Z,39.30
2019-03-18T03:17:59.600Z,38.33
2019-03-18T03:20:28.381Z,38.40
2019-03-18T03:22:57.494Z,26.20
2019-03-18T03:25:26.368Z,28.60
2019-03-18T03:27:54.956Z,25.65
2019-03-18T03:30:24.447Z,31.25
2019-03-18T03:32:53.351Z,33.37
2019-03-18T03:35:22.471Z,37.33
2019-03-18T03:37:51.024Z,29.18
2019-03-18T03:40:19.815Z,40.77
2019-03-18T03:42:48.512Z,45.60
2019-03-18T03:45:17.807Z,44.60
2019-03-18T03:47:46.682Z,33.23
2019-03-18T03:50:15.257Z,33.17
2019-03-18T03:52:44.151Z,33.23
2019-03-18T03:55:13.553Z,34.03
2019-03-18T03:57:42.339Z,33.03
2019-03-18T04:00:15.153Z,39.07
2019-03-18T04:02:44.011Z,32.70
2019-03-18T04:05:12.587Z,34.73
2019-03-18T04:07:41.475Z,32.03
2019-03-18T04:10:10.876Z,39.20
2019-03-18T04:12:39.658Z,39.43
2019-03-18T04:15:09.370Z,35.43
2019-03-18T04:17:38.163Z,35.67
2019-03-18T04:20:08.301Z,42.37
2019-03-18T04:22:37.475Z,38.92
2019-03-18T04:25:07.726Z,34.13
2019-03-18T04:27:36.897Z,35.75
2019-03-18T04:30:12.254Z,45.24
2019-03-18T04:32:41.123Z,44.33
2019-03-18T04:35:11.253Z,38.30
2019-03-18T04:37:40.326Z,37.88
2019-03-18T04:40:09.742Z,41.98
2019-03-18T04:42:38.618Z,35.87
2019-03-18T04:45:07.812Z,33.47
2019-03-18T04:47:36.399Z,37.90
2019-03-18T04:50:06.954Z,32.77
2019-03-18T04:52:35.835Z,48.60
2019-03-18T04:55:06.655Z,40.07
2019-03-18T04:57:35.559Z,45.37
2019-03-18T05:00:06.839Z,27.10
2019-03-18T05:02:35.527Z,33.90
2019-03-18T05:05:04.871Z,39.87
2019-03-18T05:07:33.655Z,43.17
2019-03-18T05:10:02.565Z,32.85
2019-03-18T05:12:31.333Z,32.97
2019-03-18T05:14:59.916Z,41.00
2019-03-18T05:17:28.826Z,29.33
2019-03-18T05:19:57.713Z,37.93
2019-03-18T05:22:26.276Z,31.07
2019-03-18T05:24:55.493Z,34.23
2019-03-18T05:27:24.567Z,27.17
2019-03-18T05:29:53.461Z,31.23
2019-03-18T05:32:22.366Z,39.98
2019-03-18T05:34:50.935Z,28.95
2019-03-18T05:37:19.506Z,29.10
2019-03-18T05:39:48.086Z,35.43
2019-03-18T05:42:17.126Z,45.33
2019-03-18T05:44:45.972Z,29.10
2019-03-18T05:47:14.858Z,32.93
2019-03-18T05:49:43.949Z,32.55
2019-03-18T05:52:13.762Z,33.18
2019-03-18T05:54:42.651Z,26.93
2019-03-18T05:57:11.438Z,25.55
2019-03-18T05:59:40.254Z,22.87
2019-03-18T06:02:08.811Z,29.77
2019-03-18T06:04:37.696Z,27.07
2019-03-18T06:07:06.688Z,23.57
2019-03-18T06:09:35.577Z,28.10
2019-03-18T06:12:05.800Z,27.23
2019-03-18T06:14:35.195Z,30.02
2019-03-18T06:17:05.315Z,36.10
2019-03-18T06:19:34.409Z,20.52
2019-03-18T06:22:02.995Z,22.02
2019-03-18T06:24:31.574Z,26.45
2019-03-18T06:27:00.483Z,29.97
2019-03-18T06:29:30.483Z,25.85
2019-03-18T06:31:59.062Z,28.20
2019-03-18T06:34:27.843Z,22.40
2019-03-18T06:36:57.047Z,27.15
2019-03-18T06:39:25.723Z,24.43
2019-03-18T06:41:54.819Z,24.55
2019-03-18T06:44:23.613Z,30.13
2019-03-18T06:46:52.521Z,22.20
2019-03-18T06:49:21.490Z,20.35
2019-03-18T06:51:50.688Z,26.73
2019-03-18T06:54:20.803Z,29.73
2019-03-18T06:56:49.382Z,24.95
2019-03-18T06:59:20.121Z,30.12
2019-03-18T07:01:48.703Z,25.37
2019-03-18T07:04:20.357Z,27.40
2019-03-18T07:06:49.246Z,28.30
2019-03-18T07:09:20.895Z,22.93
2019-03-18T07:11:50.000Z,17.03
2019-03-18T07:14:19.282Z,25.00
2019-03-18T07:16:48.510Z,18.55
2019-03-18T07:19:20.659Z,22.50
2019-03-18T07:21:49.547Z,22.87
2019-03-18T07:24:20.066Z,21.00
2019-03-18T07:26:48.961Z,15.45
2019-03-18T07:29:17.598Z,28.13
2019-03-18T07:31:47.249Z,22.73
2019-03-18T07:34:15.835Z,21.83
2019-03-18T07:36:44.723Z,23.83
2019-03-18T07:39:13.302Z,21.40
2019-03-18T07:41:42.086Z,23.73
2019-03-18T07:44:10.976Z,16.73
2019-03-18T07:46:40.076Z,24.60
2019-03-18T07:49:08.958Z,22.13
2019-03-18T07:51:38.050Z,25.30
2019-03-18T07:54:06.843Z,21.75
2019-03-18T07:56:36.419Z,24.43
2019-03-18T07:59:05.954Z,25.40
2019-03-18T08:01:34.741Z,24.17
2019-03-18T08:04:03.320Z,21.90
2019-03-18T08:06:32.210Z,23.13
2019-03-18T08:09:01.299Z,24.52
2019-03-18T08:11:31.627Z,20.85
2019-03-18T08:14:00.934Z,29.37
2019-03-18T08:16:30.016Z,33.75
2019-03-18T08:18:58.598Z,26.30
2019-03-18T08:21:27.184Z,26.73
2019-03-18T08:23:56.274Z,27.15
2019-03-18T08:26:27.227Z,21.60
2019-03-18T08:28:55.695Z,20.23
2019-03-18T08:31:24.280Z,30.03
2019-03-18T08:33:53.267Z,26.87
2019-03-18T08:36:22.160Z,26.97
2019-03-18T08:38:50.735Z,31.73
2019-03-18T08:41:20.750Z,18.57
2019-03-18T08:43:49.325Z,31.25
2019-03-18T08:46:19.759Z,27.50
2019-03-18T08:48:55.610Z,25.07
2019-03-18T08:51:18.871Z,31.23
2019-03-18T08:53:47.758Z,37.17
2019-03-18T08:56:16.338Z,28.80
2019-03-18T08:58:45.947Z,39.18
2019-03-18T09:01:15.780Z,31.90
2019-03-18T09:03:45.059Z,31.73
2019-03-18T09:06:13.846Z,26.13
2019-03-18T09:08:43.006Z,25.17
2019-03-18T09:11:12.015Z,22.43
2019-03-18T09:13:40.918Z,26.52
2019-03-18T09:16:09.508Z,27.03
2019-03-18T09:18:38.386Z,23.10
2019-03-18T09:21:06.970Z,26.07
2019-03-18T09:23:35.867Z,22.87
2019-03-18T09:26:06.075Z,24.42
2019-03-18T09:28:35.279Z,23.32
2019-03-18T09:31:04.602Z,19.60
2019-03-18T09:33:33.165Z,24.15
2019-03-18T09:36:02.048Z,21.20
2019-03-18T09:38:30.632Z,18.02
2019-03-18T09:40:59.731Z,23.60
2019-03-18T09:43:28.718Z,19.07
2019-03-18T09:45:57.706Z,21.80
2019-03-18T09:48:26.513Z,20.77
2019-03-18T09:50:55.074Z,22.00
2019-03-18T09:53:23.655Z,17.37
2019-03-18T09:55:52.241Z,20.85
2019-03-18T09:58:20.831Z,20.43
2019-03-18T10:00:49.732Z,21.13
2019-03-18T10:03:18.806Z,19.97
2019-03-18T10:05:48.228Z,18.40
2019-03-18T10:08:18.760Z,16.48
2019-03-18T10:10:47.518Z,16.77
2019-03-18T10:13:16.409Z,17.03
2019-03-18T10:15:45.323Z,21.05
2019-03-18T10:18:14.416Z,17.70
2019-03-18T10:20:43.599Z,20.85
2019-03-18T10:23:12.280Z,19.07
2019-03-18T10:25:40.859Z,14.18
2019-03-18T10:28:09.746Z,17.27
2019-03-18T10:30:38.636Z,16.17
2019-03-18T10:33:07.338Z,13.57
2019-03-18T10:35:35.898Z,23.15
2019-03-18T10:38:05.713Z,11.67
2019-03-18T10:40:34.712Z,20.02
2019-03-18T10:43:03.286Z,20.30
2019-03-18T10:45:32.174Z,18.10
2019-03-18T10:48:01.263Z,14.98
2019-03-18T10:50:30.158Z,13.87
2019-03-18T10:52:58.744Z,21.65
2019-03-18T10:55:27.857Z,17.00
2019-03-18T10:57:57.266Z,11.83
2019-03-18T11:00:32.695Z,14.10
2019-03-18T11:03:01.260Z,16.82
2019-03-18T11:05:30.841Z,15.25
2019-03-18T11:07:59.656Z,22.73
2019-03-18T11:10:28.438Z,16.82
2019-03-18T11:12:57.020Z,12.75
2019-03-18T11:15:26.725Z,13.28
2019-03-18T11:17:55.627Z,12.53
2019-03-18T11:20:24.632Z,15.80
2019-03-18T11:22:53.500Z,15.63
2019-03-18T11:25:22.392Z,19.17
2019-03-18T11:27:50.968Z,8.80
2019-03-18T11:30:21.192Z,13.33
2019-03-18T11:32:50.387Z,17.15
2019-03-18T11:35:19.300Z,14.20
2019-03-18T11:37:49.395Z,14.15
2019-03-18T11:40:20.741Z,20.70
2019-03-18T11:42:49.831Z,16.57
2019-03-18T11:45:21.487Z,13.32
2019-03-18T11:47:50.479Z,15.23
2019-03-18T11:50:20.496Z,15.37
2019-03-18T11:52:49.077Z,15.38
2019-03-18T11:55:18.856Z,17.05
2019-03-18T11:57:47.686Z,20.40
2019-03-18T12:00:30.385Z,9.73
2019-03-18T12:02:58.561Z,8.90
2019-03-18T12:05:29.495Z,9.08
2019-03-18T12:07:58.166Z,13.70
2019-03-18T12:10:26.877Z,10.20
2019-03-18T12:12:55.954Z,7.10
2019-03-18T12:15:25.467Z,9.90
2019-03-18T12:17:54.407Z,9.77
2019-03-18T12:20:25.225Z,11.30
2019-03-18T12:22:54.204Z,12.28
2019-03-18T12:25:23.380Z,8.93
2019-03-18T12:27:52.599Z,7.47
2019-03-18T12:30:23.013Z,7.77
2019-03-18T12:32:52.206Z,11.10
2019-03-18T12:35:21.201Z,12.23
2019-03-18T12:37:50.379Z,8.77
2019-03-18T12:40:19.375Z,11.57
2019-03-18T12:42:49.083Z,12.37
2019-03-18T12:45:21.346Z,13.13
2019-03-18T12:47:50.142Z,9.07
2019-03-18T12:50:38.604Z,8.48
2019-03-18T12:52:52.958Z,8.80
2019-03-18T12:55:22.050Z,10.45
2019-03-18T12:57:50.939Z,9.23
2019-03-18T13:00:21.810Z,12.10
2019-03-18T13:02:50.948Z,11.67
2019-03-18T13:05:21.419Z,12.63
2019-03-18T13:07:50.463Z,8.50
2019-03-18T13:10:21.817Z,10.98
2019-03-18T13:12:50.810Z,11.77
2019-03-18T13:15:19.992Z,10.37
2019-03-18T13:17:49.225Z,11.15
2019-03-18T13:20:18.633Z,9.60
2019-03-18T13:22:47.409Z,11.48
2019-03-18T13:25:15.970Z,10.70
2019-03-18T13:27:44.747Z,9.67
2019-03-18T13:30:16.841Z,6.60
2019-03-18T13:32:48.279Z,9.28
2019-03-18T13:35:19.254Z,5.87
2019-03-18T13:37:47.679Z,6.37
2019-03-18T13:40:19.851Z,6.80
2019-03-18T13:42:48.430Z,3.65
2019-03-18T13:45:20.742Z,9.00
2019-03-18T13:47:49.762Z,3.27
2019-03-18T13:50:21.628Z,5.80
2019-03-18T13:52:50.447Z,6.87
2019-03-18T13:55:20.696Z,7.60
2019-03-18T13:57:49.552Z,6.28
2019-03-18T14:00:32.345Z,4.43
2019-03-18T14:03:00.946Z,3.70
2019-03-18T14:05:30.139Z,4.75
2019-03-18T14:08:00.877Z,4.12
2019-03-18T14:10:29.259Z,5.40
2019-03-18T14:12:58.267Z,5.08
2019-03-18T14:15:27.856Z,3.80
2019-03-18T14:17:58.490Z,5.47
2019-03-18T14:20:30.233Z,8.38
2019-03-18T14:22:59.025Z,8.18
2019-03-18T14:25:27.821Z,8.28
2019-03-18T14:27:56.399Z,5.40
2019-03-18T14:30:24.974Z,10.78
2019-03-18T14:32:54.070Z,5.87
2019-03-18T14:35:22.651Z,8.50
2019-03-18T14:37:51.235Z,7.72
2019-03-18T14:40:20.530Z,6.77
2019-03-18T14:42:49.626Z,6.50
2019-03-18T14:45:20.874Z,4.10
2019-03-18T14:47:50.066Z,7.53
2019-03-18T14:50:19.374Z,5.80
2019-03-18T14:52:48.796Z,8.70
2019-03-18T14:55:18.088Z,6.85
2019-03-18T14:57:47.357Z,5.72
2019-03-18T15:00:31.930Z,5.22
2019-03-18T15:03:00.606Z,5.17
2019-03-18T15:05:29.596Z,4.12
2019-03-18T15:07:58.375Z,5.47
2019-03-18T15:10:27.784Z,8.43
2019-03-18T15:12:56.368Z,7.53
2019-03-18T15:15:24.947Z,8.03
2019-03-18T15:17:53.526Z,3.98
2019-03-18T15:20:23.850Z,4.00
2019-03-18T15:22:52.441Z,4.97
2019-03-18T15:25:24.923Z,4.67
2019-03-18T15:27:54.104Z,3.72
2019-03-18T15:30:22.687Z,4.97
2019-03-18T15:32:51.601Z,8.65
2019-03-18T15:35:20.470Z,6.30
2019-03-18T15:37:49.060Z,3.62
2019-03-18T15:40:19.699Z,7.05
2019-03-18T15:42:48.568Z,4.85
2019-03-18T15:45:18.397Z,7.63
2019-03-18T15:47:46.956Z,6.55
2019-03-18T15:50:19.328Z,9.17
2019-03-18T15:52:49.061Z,4.12
2019-03-18T15:55:18.662Z,7.10
2019-03-18T15:57:47.657Z,6.05
2019-03-18T16:00:30.456Z,7.33
2019-03-18T16:02:59.744Z,3.33
2019-03-18T16:05:28.535Z,7.23
2019-03-18T16:07:57.429Z,8.27
2019-03-18T16:10:26.218Z,3.70
2019-03-18T16:12:55.235Z,6.37
2019-03-18T16:15:23.887Z,6.03
2019-03-18T16:17:52.566Z,5.83
2019-03-18T16:20:22.515Z,9.98
2019-03-18T16:22:54.263Z,6.70
2019-03-18T16:25:29.084Z,4.70
2019-03-18T16:28:00.499Z,6.70
2019-03-18T16:30:29.607Z,7.80
2019-03-18T16:32:58.200Z,4.62
2019-03-18T16:35:27.702Z,5.92
2019-03-18T16:37:56.280Z,11.08
2019-03-18T16:40:25.068Z,11.93
2019-03-18T16:42:54.285Z,11.05
2019-03-18T16:45:23.558Z,11.70
2019-03-18T16:47:52.144Z,9.65
2019-03-18T16:50:21.645Z,6.17
2019-03-18T16:52:50.742Z,18.30
2019-03-18T16:55:20.246Z,46.37
2019-03-18T16:57:49.335Z,22.37
2019-03-18T17:00:19.863Z,15.00
2019-03-18T17:02:48.467Z,6.37
2019-03-18T17:05:17.944Z,7.60
2019-03-18T17:07:47.274Z,10.75
2019-03-18T17:10:16.547Z,11.12
2019-03-18T17:12:46.562Z,10.43
2019-03-18T17:15:18.935Z,8.97
2019-03-18T17:17:49.053Z,7.00
2019-03-18T17:20:21.015Z,5.80
2019-03-18T17:22:50.511Z,10.90
2019-03-18T17:25:23.914Z,6.67
2019-03-18T17:27:52.498Z,14.45
2019-03-18T17:30:21.074Z,10.63
2019-03-18T17:32:51.215Z,13.22
2019-03-18T17:35:20.081Z,21.50
2019-03-18T17:37:49.183Z,15.72
2019-03-18T17:40:19.460Z,17.20
2019-03-18T17:42:48.820Z,16.93
2019-03-18T17:45:18.431Z,12.43
2019-03-18T17:47:49.955Z,12.87
2019-03-18T17:50:20.075Z,8.28
2019-03-18T17:53:00.935Z,10.68
2019-03-18T17:55:20.107Z,11.25
2019-03-18T17:57:50.838Z,8.50
2019-03-18T18:00:35.444Z,11.55
2019-03-18T18:03:05.566Z,10.97
2019-03-18T18:05:34.502Z,8.97
2019-03-18T18:08:06.088Z,7.17
2019-03-18T18:10:36.687Z,5.00
2019-03-18T18:13:06.714Z,6.88
2019-03-18T18:15:35.810Z,3.70
2019-03-18T18:18:06.759Z,5.06
2019-03-18T18:20:37.742Z,6.92
2019-03-18T18:23:14.095Z,8.95
2019-03-18T18:25:37.598Z,9.00
2019-03-18T18:28:06.899Z,10.15
2019-03-18T18:30:35.811Z,7.77
2019-03-18T18:33:07.891Z,9.74
2019-03-18T18:35:37.149Z,13.30
2019-03-18T18:38:06.958Z,17.50
2019-03-18T18:40:35.850Z,13.50
2019-03-18T18:43:05.927Z,14.07
2019-03-18T18:45:35.054Z,8.28
2019-03-18T18:48:05.035Z,7.90
2019-03-18T18:50:35.112Z,9.30
2019-03-18T18:53:03.874Z,8.00
2019-03-18T18:55:32.658Z,10.07
2019-03-18T18:58:01.655Z,13.32
2019-03-18T19:00:31.016Z,15.53
2019-03-18T19:03:00.143Z,13.80
2019-03-18T19:05:28.939Z,11.88
2019-03-18T19:07:57.886Z,10.87
2019-03-18T19:10:29.067Z,9.20
2019-03-18T19:12:57.855Z,21.05
2019-03-18T19:15:31.377Z,22.63
2019-03-18T19:18:00.474Z,35.00
2019-03-18T19:20:30.492Z,26.83
2019-03-18T19:22:59.560Z,26.50
2019-03-18T19:25:28.881Z,17.30
2019-03-18T19:28:01.281Z,17.12
2019-03-18T19:30:30.119Z,19.97
2019-03-18T19:32:58.703Z,36.35
2019-03-18T19:35:28.931Z,54.88
2019-03-18T19:37:58.112Z,56.83
2019-03-18T19:40:27.118Z,49.90
2019-03-18T19:42:56.427Z,47.40
2019-03-18T19:45:25.420Z,45.65
2019-03-18T19:48:00.133Z,38.63
2019-03-18T19:50:30.134Z,33.27
2019-03-18T19:53:01.916Z,33.30
2019-03-18T19:55:30.787Z,43.43
2019-03-18T19:57:59.368Z,46.23
2019-03-18T20:00:32.374Z,44.20
2019-03-18T20:03:01.240Z,40.92
2019-03-18T20:05:30.434Z,37.13
2019-03-18T20:07:59.026Z,37.63
2019-03-18T20:10:27.619Z,36.42
2019-03-18T20:12:56.201Z,41.45
2019-03-18T20:15:25.095Z,49.43
2019-03-18T20:17:53.783Z,54.67
2019-03-18T20:20:23.056Z,47.27
2019-03-18T20:22:52.152Z,50.83
2019-03-18T20:25:20.733Z,32.90
2019-03-18T20:27:50.601Z,32.30
2019-03-18T20:30:20.382Z,23.80
2019-03-18T20:32:49.560Z,24.23
2019-03-18T20:35:26.159Z,30.13
2019-03-18T20:37:55.498Z,29.10
2019-03-18T20:40:24.851Z,33.80
2019-03-18T20:42:53.861Z,27.80
2019-03-18T20:45:26.148Z,31.17
2019-03-18T20:47:54.996Z,30.77
2019-03-18T20:50:24.409Z,38.47
2019-03-18T20:52:55.120Z,46.65
2019-03-18T20:55:24.244Z,56.43
2019-03-18T20:57:53.619Z,72.45
2019-03-18T21:00:26.568Z,48.60
2019-03-18T21:02:57.153Z,47.95
2019-03-18T21:05:26.107Z,32.40
2019-03-18T21:07:55.097Z,27.60
2019-03-18T21:10:23.677Z,32.50
2019-03-18T21:12:53.022Z,30.02
2019-03-18T21:15:22.072Z,26.50
2019-03-18T21:17:51.163Z,23.50
2019-03-18T21:20:27.222Z,21.57
2019-03-18T21:22:56.433Z,15.10
2019-03-18T21:25:25.207Z,19.27
2019-03-18T21:27:54.402Z,20.32
2019-03-18T21:30:23.342Z,29.57
2019-03-18T21:32:52.529Z,19.77
2019-03-18T21:35:23.150Z,19.17
2019-03-18T21:37:52.639Z,16.87
2019-03-18T21:40:22.221Z,17.37
2019-03-18T21:42:51.011Z,13.93
2019-03-18T21:45:23.338Z,17.85
2019-03-18T21:47:51.757Z,20.77
2019-03-18T21:50:20.542Z,21.30
2019-03-18T21:52:49.433Z,24.53
2019-03-18T21:55:19.163Z,18.57
2019-03-18T21:57:48.026Z,21.40
2019-03-18T22:00:26.393Z,17.60
2019-03-18T22:02:56.561Z,20.10
2019-03-18T22:05:25.147Z,23.10
2019-03-18T22:07:54.344Z,27.80
2019-03-18T22:10:22.937Z,27.90
2019-03-18T22:12:51.833Z,22.65
2019-03-18T22:15:21.722Z,27.25
2019-03-18T22:17:50.308Z,22.45
2019-03-18T22:20:21.654Z,25.97
2019-03-18T22:22:50.539Z,21.20
2019-03-18T22:25:19.538Z,15.67
2019-03-18T22:27:48.421Z,17.47
2019-03-18T22:30:18.975Z,17.40
2019-03-18T22:32:48.250Z,16.13
2019-03-18T22:35:16.834Z,21.37
2019-03-18T22:37:45.844Z,22.25
2019-03-18T22:40:15.023Z,24.40
2019-03-18T22:42:44.940Z,24.00
2019-03-18T22:45:14.547Z,25.52
2019-03-18T22:47:43.326Z,29.95
2019-03-18T22:50:12.630Z,29.33
2019-03-18T22:52:41.526Z,41.47
2019-03-18T22:55:11.037Z,26.87
2019-03-18T22:57:40.727Z,33.27
2019-03-18T23:00:12.378Z,28.10
2019-03-18T23:02:43.115Z,33.28
2019-03-18T23:05:13.236Z,18.43
2019-03-18T23:07:42.123Z,19.60
2019-03-18T23:10:10.803Z,24.67
2019-03-18T23:12:39.692Z,20.10
2019-03-18T23:15:08.889Z,16.37
2019-03-18T23:17:37.779Z,19.77
2019-03-18T23:20:07.491Z,24.52
2019-03-18T23:22:36.578Z,17.02
2019-03-18T23:25:08.105Z,19.00
2019-03-18T23:27:38.655Z,18.23
2019-03-18T23:30:07.953Z,21.25
2019-03-18T23:32:37.886Z,12.90
2019-03-18T23:35:07.396Z,15.38
2019-03-18T23:37:35.974Z,21.25
2019-03-18T23:40:08.118Z,19.34
2019-03-18T23:42:37.012Z,40.00
2019-03-18T23:45:07.761Z,41.48
2019-03-18T23:47:37.367Z,44.23
2019-03-18T23:50:07.993Z,38.48
2019-03-18T23:52:36.564Z,30.43
2019-03-18T23:55:17.779Z,23.30
2019-03-18T23:57:37.207Z,32.30
